createdAt,value
2018-12-10T00:02:18.680Z,5.60
2018-12-10T00:04:46.819Z,5.60
2018-12-10T00:07:14.939Z,5.60
2018-12-10T00:09:43.084Z,5.60
2018-12-10T00:12:11.163Z,5.60
2018-12-10T00:14:39.297Z,5.50
2018-12-10T00:17:07.394Z,5.60
2018-12-10T00:19:35.515Z,5.50
2018-12-10T00:22:04.066Z,5.40
2018-12-10T00:24:32.172Z,5.50
2018-12-10T00:27:00.267Z,5.40
2018-12-10T00:29:28.396Z,5.50
2018-12-10T00:31:56.493Z,5.50
2018-12-10T00:34:24.813Z,5.50
2018-12-10T00:36:54.861Z,5.40
2018-12-10T00:39:22.949Z,5.50
2018-12-10T00:41:51.078Z,5.40
2018-12-10T00:44:19.248Z,5.40
2018-12-10T00:46:47.417Z,5.40
2018-12-10T00:49:15.516Z,5.40
2018-12-10T00:51:43.662Z,5.40
2018-12-10T00:54:11.816Z,5.40
2018-12-10T00:56:39.953Z,5.40
2018-12-10T00:59:08.087Z,5.40
2018-12-10T01:01:36.225Z,5.30
2018-12-10T01:04:04.412Z,5.30
2018-12-10T01:06:32.577Z,5.40
2018-12-10T01:09:00.677Z,5.40
2018-12-10T01:11:28.821Z,5.40
2018-12-10T01:13:56.932Z,5.40
2018-12-10T01:16:25.730Z,5.30
2018-12-10T01:18:53.832Z,5.40
2018-12-10T01:21:21.962Z,5.40
2018-12-10T01:23:50.196Z,5.40
2018-12-10T01:26:18.303Z,5.40
2018-12-10T01:28:46.432Z,5.40
2018-12-10T01:31:14.585Z,5.40
2018-12-10T01:33:42.732Z,5.50
2018-12-10T01:36:10.851Z,5.50
2018-12-10T01:38:39.015Z,5.40
2018-12-10T01:41:07.132Z,5.40
2018-12-10T01:43:35.274Z,5.40
2018-12-10T01:46:03.452Z,5.50
2018-12-10T01:48:31.612Z,5.50
2018-12-10T01:50:59.726Z,5.40
2018-12-10T01:53:27.864Z,5.30
2018-12-10T01:55:56.075Z,5.30
2018-12-10T02:01:21.382Z,5.30
2018-12-10T02:03:49.535Z,5.20
2018-12-10T02:06:17.703Z,5.10
2018-12-10T02:08:45.809Z,5.00
2018-12-10T02:11:13.897Z,5.00
2018-12-10T02:13:42.067Z,5.00
2018-12-10T02:16:10.198Z,5.00
2018-12-10T02:18:38.329Z,5.10
2018-12-10T02:21:06.431Z,5.10
2018-12-10T02:23:34.533Z,5.10
2018-12-10T02:26:02.740Z,5.10
2018-12-10T02:28:36.754Z,5.10
2018-12-10T02:31:04.866Z,5.00
2018-12-10T02:33:33.082Z,5.00
2018-12-10T02:36:01.248Z,5.00
2018-12-10T02:38:29.456Z,5.00
2018-12-10T02:40:57.761Z,5.00
2018-12-10T02:43:26.563Z,4.90
2018-12-10T02:45:54.711Z,4.90
2018-12-10T02:48:22.882Z,4.90
2018-12-10T02:50:50.958Z,4.90
2018-12-10T02:53:19.141Z,4.80
2018-12-10T02:55:47.237Z,4.80
2018-12-10T02:58:15.393Z,4.80
2018-12-10T03:00:43.605Z,4.80
2018-12-10T03:03:11.776Z,4.80
2018-12-10T03:05:39.922Z,4.80
2018-12-10T03:08:08.075Z,4.90
2018-12-10T03:10:36.257Z,4.90
2018-12-10T03:13:04.454Z,4.90
2018-12-10T03:15:32.553Z,4.90
2018-12-10T03:18:00.686Z,4.90
2018-12-10T03:20:28.821Z,4.90
2018-12-10T03:22:56.982Z,4.90
2018-12-10T03:25:25.140Z,4.90
2018-12-10T03:27:53.260Z,4.90
2018-12-10T03:30:21.369Z,4.90
2018-12-10T03:32:49.579Z,5.00
2018-12-10T03:35:17.705Z,4.90
2018-12-10T03:37:45.940Z,4.90
2018-12-10T03:40:14.072Z,4.90
2018-12-10T03:42:42.228Z,5.00
2018-12-10T03:45:10.368Z,5.00
2018-12-10T03:47:39.956Z,5.00
2018-12-10T03:50:08.262Z,5.00
2018-12-10T03:52:36.356Z,5.00
2018-12-10T03:55:05.439Z,5.00
2018-12-10T03:57:33.537Z,5.00
2018-12-10T04:00:01.788Z,5.00
2018-12-10T04:02:29.882Z,5.00
2018-12-10T04:04:57.996Z,5.00
2018-12-10T04:07:26.195Z,4.90
2018-12-10T04:09:54.363Z,4.90
2018-12-10T04:12:22.635Z,4.90
2018-12-10T04:14:50.783Z,4.90
2018-12-10T04:17:18.944Z,4.90
2018-12-10T04:19:47.059Z,4.90
2018-12-10T04:22:15.412Z,4.90
2018-12-10T04:24:45.612Z,4.90
2018-12-10T04:27:13.631Z,4.90
2018-12-10T04:29:42.598Z,5.00
2018-12-10T04:32:10.695Z,5.00
2018-12-10T04:34:38.801Z,5.00
2018-12-10T04:37:06.952Z,5.00
2018-12-10T04:39:35.061Z,5.00
2018-12-10T04:42:03.223Z,5.00
2018-12-10T04:44:31.396Z,4.90
2018-12-10T04:47:02.423Z,4.90
2018-12-10T04:49:30.538Z,4.90
2018-12-10T04:51:58.675Z,4.80
2018-12-10T04:54:26.816Z,4.80
2018-12-10T04:56:55.045Z,4.80
2018-12-10T04:59:23.183Z,4.80
2018-12-10T05:01:51.277Z,4.80
2018-12-10T05:04:19.473Z,4.80
2018-12-10T05:06:47.563Z,4.90
2018-12-10T05:09:16.048Z,4.90
2018-12-10T05:11:44.202Z,4.90
2018-12-10T05:14:12.396Z,4.90
2018-12-10T05:16:40.515Z,5.00
2018-12-10T05:19:08.696Z,5.00
2018-12-10T05:21:36.922Z,4.90
2018-12-10T05:24:05.019Z,5.00
2018-12-10T05:26:33.123Z,5.00
2018-12-10T05:29:01.228Z,5.00
2018-12-10T05:31:29.331Z,5.00
2018-12-10T05:33:57.435Z,5.00
2018-12-10T05:36:25.548Z,4.90
2018-12-10T05:38:53.660Z,4.90
2018-12-10T05:41:21.876Z,4.90
2018-12-10T05:43:49.989Z,5.00
2018-12-10T05:46:18.092Z,5.00
2018-12-10T05:48:46.195Z,5.10
2018-12-10T05:51:14.307Z,5.00
2018-12-10T05:53:42.404Z,5.00
2018-12-10T05:56:10.506Z,5.00
2018-12-10T05:58:38.767Z,5.00
2018-12-10T06:01:06.999Z,5.10
2018-12-10T06:03:35.101Z,5.00
2018-12-10T06:06:03.287Z,5.00
2018-12-10T06:08:31.402Z,5.10
2018-12-10T06:10:59.500Z,5.20
2018-12-10T06:13:27.603Z,5.20
2018-12-10T06:15:55.724Z,5.10
2018-12-10T06:18:23.861Z,5.00
2018-12-10T06:20:52.023Z,5.00
2018-12-10T06:23:20.116Z,5.10
2018-12-10T06:25:48.290Z,5.00
2018-12-10T06:28:16.411Z,5.10
2018-12-10T06:30:44.543Z,5.10
2018-12-10T06:33:12.737Z,5.00
2018-12-10T06:35:40.820Z,5.00
2018-12-10T06:38:08.932Z,5.00
2018-12-10T06:40:38.361Z,4.90
2018-12-10T06:43:06.607Z,4.90
2018-12-10T06:45:34.695Z,5.00
2018-12-10T06:48:02.835Z,4.90
2018-12-10T06:50:30.964Z,4.90
2018-12-10T06:52:59.078Z,5.10
2018-12-10T06:55:27.172Z,5.00
2018-12-10T06:57:55.310Z,5.00
2018-12-10T07:00:23.431Z,5.00
2018-12-10T07:02:51.560Z,5.00
2018-12-10T07:05:19.721Z,5.00
2018-12-10T07:07:47.840Z,5.10
2018-12-10T07:10:15.972Z,5.10
2018-12-10T07:12:44.084Z,5.20
2018-12-10T07:15:12.255Z,5.10
2018-12-10T07:17:40.369Z,5.10
2018-12-10T07:20:08.559Z,5.10
2018-12-10T07:22:36.748Z,5.00
2018-12-10T07:25:05.717Z,5.10
2018-12-10T07:27:33.993Z,5.10
2018-12-10T07:30:02.107Z,5.00
2018-12-10T07:32:30.299Z,5.00
2018-12-10T07:34:58.376Z,5.10
2018-12-10T07:37:26.487Z,5.10
2018-12-10T07:39:54.592Z,5.00
2018-12-10T07:42:22.704Z,5.10
2018-12-10T07:44:50.831Z,5.10
2018-12-10T07:47:18.921Z,5.00
2018-12-10T07:49:47.026Z,5.10
2018-12-10T07:52:15.267Z,5.10
2018-12-10T07:54:43.379Z,5.10
2018-12-10T07:57:11.608Z,5.10
2018-12-10T07:59:39.727Z,5.10
2018-12-10T08:02:07.868Z,5.10
2018-12-10T08:04:35.963Z,5.10
2018-12-10T08:07:04.043Z,5.10
2018-12-10T08:09:32.180Z,5.00
2018-12-10T08:12:00.315Z,5.00
2018-12-10T08:14:28.415Z,5.10
2018-12-10T08:16:56.544Z,5.20
2018-12-10T08:19:24.663Z,5.20
2018-12-10T08:21:52.749Z,5.20
2018-12-10T08:24:20.844Z,5.30
2018-12-10T08:26:48.957Z,5.20
2018-12-10T08:29:17.163Z,5.20
2018-12-10T08:31:45.336Z,5.10
2018-12-10T08:34:13.423Z,5.10
2018-12-10T08:36:41.625Z,5.10
2018-12-10T08:39:09.756Z,5.20
2018-12-10T08:41:37.867Z,5.10
2018-12-10T08:44:05.997Z,5.00
2018-12-10T08:46:34.165Z,5.00
2018-12-10T08:49:02.296Z,5.00
2018-12-10T08:51:30.417Z,5.00
2018-12-10T08:53:58.544Z,5.10
2018-12-10T08:56:26.949Z,5.00
2018-12-10T08:58:55.047Z,5.10
2018-12-10T09:01:23.184Z,5.10
2018-12-10T09:03:51.293Z,5.00
2018-12-10T09:06:19.403Z,5.00
2018-12-10T09:08:47.524Z,5.00
2018-12-10T09:11:15.704Z,5.00
2018-12-10T09:13:43.859Z,4.90
2018-12-10T09:16:12.096Z,4.90
2018-12-10T09:18:40.211Z,5.00
2018-12-10T09:21:08.324Z,5.00
2018-12-10T09:23:36.484Z,5.00
2018-12-10T09:26:04.652Z,5.10
2018-12-10T09:28:32.850Z,5.10
2018-12-10T09:31:00.990Z,5.20
2018-12-10T09:33:29.152Z,5.30
2018-12-10T09:35:57.243Z,5.40
2018-12-10T09:38:26.695Z,5.40
2018-12-10T09:40:54.952Z,5.40
2018-12-10T09:43:23.068Z,5.30
2018-12-10T09:45:51.189Z,5.30
2018-12-10T09:48:19.292Z,5.20
2018-12-10T09:50:47.461Z,5.20
2018-12-10T09:53:15.576Z,5.20
2018-12-10T09:55:43.671Z,5.20
2018-12-10T09:58:11.827Z,5.10
2018-12-10T10:00:40.005Z,5.10
2018-12-10T10:03:08.144Z,5.20
2018-12-10T10:05:36.403Z,5.20
2018-12-10T10:08:04.592Z,5.20
2018-12-10T10:10:32.816Z,5.30
2018-12-10T10:13:00.930Z,5.30
2018-12-10T10:15:29.077Z,5.40
2018-12-10T10:17:58.920Z,5.50
2018-12-10T10:20:27.403Z,5.80
2018-12-10T10:22:55.656Z,6.10
2018-12-10T10:25:23.780Z,6.40
2018-12-10T10:27:51.958Z,6.20
2018-12-10T10:30:20.107Z,6.00
2018-12-10T10:32:48.221Z,6.10
2018-12-10T10:35:16.417Z,6.20
2018-12-10T10:37:44.534Z,6.50
2018-12-10T10:40:12.727Z,6.50
2018-12-10T10:42:40.913Z,6.70
2018-12-10T10:45:09.125Z,6.90
2018-12-10T10:47:37.241Z,7.00
2018-12-10T10:50:06.107Z,7.10
2018-12-10T10:52:34.304Z,7.20
2018-12-10T10:55:02.520Z,7.20
2018-12-10T10:57:31.554Z,7.30
2018-12-10T11:00:00.003Z,7.40
2018-12-10T11:02:46.417Z,7.50
2018-12-10T11:05:14.753Z,7.70
2018-12-10T11:07:43.203Z,7.50
2018-12-10T11:10:11.404Z,7.40
2018-12-10T11:12:39.514Z,7.30
2018-12-10T11:15:07.659Z,7.10
2018-12-10T11:17:35.799Z,7.00
2018-12-10T11:20:05.671Z,6.80
2018-12-10T11:22:33.822Z,6.70
2018-12-10T11:25:01.927Z,6.50
2018-12-10T11:27:30.132Z,6.50
2018-12-10T11:29:58.316Z,6.40
2018-12-10T11:32:26.407Z,6.30
2018-12-10T11:34:54.548Z,6.20
2018-12-10T11:37:22.644Z,6.30
2018-12-10T11:39:50.801Z,6.30
2018-12-10T11:42:18.905Z,6.10
2018-12-10T11:44:48.602Z,6.00
2018-12-10T11:47:16.880Z,5.90
2018-12-10T11:49:44.984Z,5.80
2018-12-10T11:52:13.164Z,5.80
2018-12-10T11:54:41.368Z,5.80
2018-12-10T11:57:09.475Z,5.90
2018-12-10T11:59:37.592Z,6.00
2018-12-10T12:02:05.883Z,6.10
2018-12-10T12:04:34.030Z,6.10
2018-12-10T12:07:02.107Z,6.20
2018-12-10T12:09:30.333Z,6.20
2018-12-10T12:11:58.464Z,6.30
2018-12-10T12:14:26.617Z,6.30
2018-12-10T12:16:54.746Z,6.30
2018-12-10T12:19:22.896Z,6.30
2018-12-10T12:21:50.996Z,6.30
2018-12-10T12:24:19.366Z,6.20
2018-12-10T12:26:48.256Z,6.10
2018-12-10T12:29:16.370Z,6.10
2018-12-10T12:31:44.583Z,6.00
2018-12-10T12:34:12.676Z,6.00
2018-12-10T12:36:40.835Z,6.10
2018-12-10T12:39:08.923Z,6.00
2018-12-10T12:41:37.088Z,6.00
2018-12-10T12:44:05.232Z,5.90
2018-12-10T12:46:33.448Z,5.90
2018-12-10T12:49:01.596Z,5.90
2018-12-10T12:51:29.915Z,5.90
2018-12-10T12:53:58.024Z,5.90
2018-12-10T12:56:26.204Z,5.90
2018-12-10T12:58:54.316Z,6.00
2018-12-10T13:01:22.574Z,6.10
2018-12-10T13:03:50.659Z,6.20
2018-12-10T13:06:18.846Z,6.20
2018-12-10T13:08:47.989Z,6.20
2018-12-10T13:11:16.196Z,6.10
2018-12-10T13:13:44.288Z,6.00
2018-12-10T13:16:12.395Z,6.00
2018-12-10T13:18:40.507Z,6.00
2018-12-10T13:21:08.632Z,5.90
2018-12-10T13:23:36.749Z,5.80
2018-12-10T13:26:04.891Z,5.70
2018-12-10T13:28:33.016Z,5.70
2018-12-10T13:31:01.133Z,5.70
2018-12-10T13:33:29.223Z,5.70
2018-12-10T13:35:57.411Z,5.70
2018-12-10T13:38:25.500Z,5.70
2018-12-10T13:40:53.608Z,5.80
2018-12-10T13:43:21.785Z,5.80
2018-12-10T13:45:50.004Z,5.80
2018-12-10T13:48:18.228Z,5.80
2018-12-10T13:50:46.342Z,5.90
2018-12-10T13:53:14.447Z,5.90
2018-12-10T13:55:42.563Z,5.80
2018-12-10T13:58:10.728Z,5.90
2018-12-10T14:00:38.908Z,5.90
2018-12-10T14:03:07.237Z,5.90
2018-12-10T14:05:35.384Z,6.00
2018-12-10T14:08:03.543Z,6.00
2018-12-10T14:10:31.735Z,6.10
2018-12-10T14:12:59.858Z,6.00
2018-12-10T14:15:28.129Z,6.10
2018-12-10T14:17:56.252Z,6.00
2018-12-10T14:20:24.403Z,6.10
2018-12-10T14:22:52.531Z,6.10
2018-12-10T14:25:23.859Z,6.10
2018-12-10T14:27:52.198Z,6.10
2018-12-10T14:30:20.335Z,6.10
2018-12-10T14:32:48.713Z,6.20
2018-12-10T14:35:16.875Z,6.20
2018-12-10T14:37:45.118Z,6.20
2018-12-10T14:40:13.340Z,6.20
2018-12-10T14:42:49.210Z,6.30
2018-12-10T14:45:17.983Z,6.30
2018-12-10T14:47:49.500Z,6.20
2018-12-10T14:50:17.756Z,6.20
2018-12-10T14:52:45.928Z,6.10
2018-12-10T14:55:14.000Z,6.00
2018-12-10T14:57:42.101Z,5.90
2018-12-10T15:00:10.623Z,5.90
2018-12-10T15:02:38.809Z,6.00
2018-12-10T15:05:07.375Z,5.90
2018-12-10T15:07:35.533Z,5.80
2018-12-10T15:10:04.901Z,5.90
2018-12-10T15:12:33.016Z,5.90
2018-12-10T15:15:02.468Z,5.80
2018-12-10T15:17:30.727Z,5.90
2018-12-10T15:19:58.832Z,5.90
2018-12-10T15:22:26.943Z,6.00
2018-12-10T15:24:55.068Z,6.00
2018-12-10T15:27:23.172Z,6.00
2018-12-10T15:29:51.275Z,6.00
2018-12-10T15:32:19.444Z,6.10
2018-12-10T15:34:47.569Z,6.10
2018-12-10T15:37:15.662Z,6.00
2018-12-10T15:39:43.768Z,6.10
2018-12-10T15:42:11.919Z,6.10
2018-12-10T15:44:40.114Z,6.00
2018-12-10T15:47:08.230Z,6.00
2018-12-10T15:49:36.401Z,6.10
2018-12-10T15:52:04.498Z,6.00
2018-12-10T15:54:32.587Z,6.00
2018-12-10T15:57:00.855Z,6.10
2018-12-10T15:59:28.972Z,6.00
2018-12-10T16:01:57.067Z,5.90
2018-12-10T16:04:25.213Z,5.90
2018-12-10T16:06:53.300Z,6.00
2018-12-10T16:09:21.417Z,5.90
2018-12-10T16:11:49.528Z,6.00
2018-12-10T16:14:17.628Z,6.00
2018-12-10T16:16:45.724Z,6.00
2018-12-10T16:19:13.860Z,6.10
2018-12-10T16:21:42.019Z,6.10
2018-12-10T16:24:10.203Z,6.10
2018-12-10T16:26:38.283Z,6.10
2018-12-10T16:29:06.571Z,6.00
2018-12-10T16:31:34.669Z,6.00
2018-12-10T16:34:02.793Z,6.00
2018-12-10T16:36:30.984Z,6.00
2018-12-10T16:38:59.381Z,5.90
2018-12-10T16:41:27.591Z,5.90
2018-12-10T16:43:55.700Z,5.90
2018-12-10T16:46:23.895Z,5.90
2018-12-10T16:48:52.053Z,5.80
2018-12-10T16:51:20.172Z,5.70
2018-12-10T16:53:48.393Z,5.80
2018-12-10T16:56:16.527Z,5.80
2018-12-10T16:58:44.696Z,5.70
2018-12-10T17:01:12.844Z,5.70
2018-12-10T17:03:41.046Z,5.80
2018-12-10T17:06:09.199Z,5.80
2018-12-10T17:08:37.372Z,5.80
2018-12-10T17:11:05.539Z,5.80
2018-12-10T17:13:33.671Z,5.70
2018-12-10T17:16:01.876Z,5.70
2018-12-10T17:18:29.951Z,5.70
2018-12-10T17:20:58.112Z,5.60
2018-12-10T17:23:26.749Z,5.60
2018-12-10T17:25:54.880Z,5.60
2018-12-10T17:28:23.008Z,5.60
2018-12-10T17:30:51.142Z,5.60
2018-12-10T17:33:19.237Z,5.60
2018-12-10T17:35:47.371Z,5.60
2018-12-10T17:38:15.479Z,5.70
2018-12-10T17:40:43.789Z,5.70
2018-12-10T17:43:11.884Z,5.60
2018-12-10T17:45:39.998Z,5.60
2018-12-10T17:48:08.144Z,5.60
2018-12-10T17:50:36.311Z,5.50
2018-12-10T17:53:04.495Z,5.50
2018-12-10T17:55:32.607Z,5.50
2018-12-10T17:58:00.802Z,5.40
2018-12-10T18:00:28.945Z,5.40
2018-12-10T18:02:57.051Z,5.30
2018-12-10T18:05:26.680Z,5.40
2018-12-10T18:07:55.063Z,5.30
2018-12-10T18:10:23.247Z,5.40
2018-12-10T18:12:51.368Z,5.30
2018-12-10T18:15:19.517Z,5.40
2018-12-10T18:17:47.637Z,5.40
2018-12-10T18:20:15.830Z,5.40
2018-12-10T18:22:44.020Z,5.40
2018-12-10T18:25:12.197Z,5.30
2018-12-10T18:27:40.337Z,5.30
2018-12-10T18:30:09.452Z,5.30
2018-12-10T18:32:37.612Z,5.30
2018-12-10T18:35:06.723Z,5.20
2018-12-10T18:37:34.911Z,5.10
2018-12-10T18:40:05.419Z,5.20
2018-12-10T18:42:33.608Z,5.10
2018-12-10T18:45:01.784Z,5.10
2018-12-10T18:47:29.990Z,5.20
2018-12-10T18:49:58.087Z,5.20
2018-12-10T18:52:26.204Z,5.10
2018-12-10T18:54:54.288Z,5.20
2018-12-10T18:57:22.400Z,5.10
2018-12-10T18:59:50.497Z,5.10
2018-12-10T19:02:18.712Z,5.10
2018-12-10T19:04:46.812Z,5.10
2018-12-10T19:07:14.946Z,5.20
2018-12-10T19:09:43.075Z,5.20
2018-12-10T19:12:11.186Z,5.10
2018-12-10T19:14:39.415Z,5.10
2018-12-10T19:17:07.566Z,5.00
2018-12-10T19:19:35.776Z,5.00
2018-12-10T19:22:03.935Z,5.00
2018-12-10T19:24:32.175Z,5.00
2018-12-10T19:27:00.294Z,4.90
2018-12-10T19:29:28.413Z,5.00
2018-12-10T19:31:56.512Z,5.00
2018-12-10T19:34:24.669Z,5.00
2018-12-10T19:36:52.803Z,5.00
2018-12-10T19:39:21.029Z,4.90
2018-12-10T19:41:49.187Z,5.00
2018-12-10T19:44:17.306Z,5.00
2018-12-10T19:46:45.437Z,5.00
2018-12-10T19:49:13.694Z,5.00
2018-12-10T19:51:42.271Z,5.00
2018-12-10T19:54:10.480Z,4.90
2018-12-10T19:56:38.631Z,4.90
2018-12-10T19:59:06.779Z,5.00
2018-12-10T20:01:34.948Z,5.00
2018-12-10T20:04:03.189Z,4.90
2018-12-10T20:06:32.124Z,5.00
2018-12-10T20:09:00.238Z,4.90
2018-12-10T20:11:28.351Z,5.00
2018-12-10T20:13:57.749Z,4.90
2018-12-10T20:16:25.871Z,4.90
2018-12-10T20:18:54.024Z,4.90
2018-12-10T20:21:22.113Z,4.90
2018-12-10T20:23:50.216Z,4.90
2018-12-10T20:26:18.410Z,5.00
2018-12-10T20:28:46.583Z,5.00
2018-12-10T20:31:14.822Z,5.00
2018-12-10T20:33:43.101Z,5.00
2018-12-10T20:36:11.351Z,5.00
2018-12-10T20:38:39.681Z,4.90
2018-12-10T20:41:07.823Z,4.90
2018-12-10T20:43:35.938Z,4.90
2018-12-10T20:46:04.118Z,4.90
2018-12-10T20:48:32.252Z,5.00
2018-12-10T20:51:00.452Z,5.00
2018-12-10T20:53:28.561Z,5.00
2018-12-10T20:55:56.661Z,5.10
2018-12-10T20:58:24.812Z,5.10
2018-12-10T21:00:52.911Z,5.10
2018-12-10T21:03:21.164Z,5.10
2018-12-10T21:05:55.079Z,5.10
2018-12-10T21:08:23.252Z,5.10
2018-12-10T21:10:51.372Z,5.10
2018-12-10T21:13:19.468Z,5.10
2018-12-10T21:15:47.603Z,5.10
2018-12-10T21:18:15.716Z,5.10
2018-12-10T21:20:43.854Z,5.20
2018-12-10T21:23:12.023Z,5.10
2018-12-10T21:25:40.168Z,5.20
2018-12-10T21:28:08.310Z,5.20
2018-12-10T21:30:36.425Z,5.10
2018-12-10T21:33:04.635Z,5.20
2018-12-10T21:35:32.760Z,5.20
2018-12-10T21:38:01.091Z,5.20
2018-12-10T21:40:29.245Z,5.30
2018-12-10T21:42:57.383Z,5.30
2018-12-10T21:45:25.528Z,5.20
2018-12-10T21:47:53.634Z,5.20
2018-12-10T21:50:21.779Z,5.20
2018-12-10T21:52:49.897Z,5.20
2018-12-10T21:55:18.036Z,5.10
2018-12-10T21:57:46.143Z,5.10
2018-12-10T22:00:14.328Z,5.10
2018-12-10T22:02:42.485Z,5.10
2018-12-10T22:05:10.645Z,5.10
2018-12-10T22:07:38.825Z,5.00
2018-12-10T22:10:07.013Z,4.90
2018-12-10T22:12:35.175Z,4.90
2018-12-10T22:15:04.064Z,4.90
2018-12-10T22:17:32.298Z,4.90
2018-12-10T22:20:00.473Z,4.90
2018-12-10T22:22:28.596Z,4.90
2018-12-10T22:24:56.708Z,4.90
2018-12-10T22:27:24.804Z,4.80
2018-12-10T22:29:52.942Z,4.90
2018-12-10T22:32:21.044Z,4.90
2018-12-10T22:34:49.199Z,4.80
2018-12-10T22:37:17.375Z,4.90
2018-12-10T22:39:45.467Z,4.90
2018-12-10T22:42:13.682Z,4.90
2018-12-10T22:44:43.253Z,4.90
2018-12-10T22:47:11.538Z,4.90
2018-12-10T22:49:39.779Z,4.90
2018-12-10T22:52:07.911Z,4.90
2018-12-10T22:54:36.015Z,4.90
2018-12-10T22:57:04.216Z,4.90
2018-12-10T22:59:32.330Z,4.90
2018-12-10T23:02:00.600Z,4.90
2018-12-10T23:04:28.709Z,4.90
2018-12-10T23:06:56.812Z,4.90
2018-12-10T23:09:24.920Z,4.90
2018-12-10T23:11:53.145Z,4.90
2018-12-10T23:14:21.247Z,4.90
2018-12-10T23:16:49.364Z,4.90
2018-12-10T23:19:17.473Z,4.90
2018-12-10T23:21:45.571Z,4.90
2018-12-10T23:24:13.671Z,4.90
2018-12-10T23:26:41.794Z,4.90
2018-12-10T23:29:09.948Z,5.00
2018-12-10T23:31:38.101Z,4.90
2018-12-10T23:34:06.199Z,4.80
2018-12-10T23:36:34.319Z,4.90
2018-12-10T23:39:02.453Z,5.00
2018-12-10T23:41:30.551Z,5.00
2018-12-10T23:43:58.672Z,5.00
2018-12-10T23:46:26.820Z,5.10
2018-12-10T23:48:54.907Z,5.00
2018-12-10T23:51:23.066Z,5.00
2018-12-10T23:53:51.389Z,5.00
2018-12-10T23:56:19.669Z,5.00
2018-12-10T23:58:47.793Z,4.90
